createdAt,value
2019-05-06T00:00:14.720Z,7.85
2019-05-06T00:02:43.668Z,8.05
2019-05-06T00:05:14.293Z,7.83
2019-05-06T00:07:44.491Z,7.90
2019-05-06T00:10:30.169Z,8.17
2019-05-06T00:12:58.752Z,8.10
2019-05-06T00:15:27.409Z,8.20
2019-05-06T00:17:55.989Z,7.90
2019-05-06T00:20:24.578Z,8.68
2019-05-06T00:22:54.804Z,7.90
2019-05-06T00:25:34.879Z,8.10
2019-05-06T00:28:20.962Z,6.60
2019-05-06T00:30:51.021Z,7.50
2019-05-06T00:33:19.701Z,7.60
2019-05-06T00:35:48.133Z,8.20
2019-05-06T00:38:16.546Z,6.87
2019-05-06T00:40:54.247Z,7.33
2019-05-06T00:43:23.579Z,7.75
2019-05-06T00:45:53.658Z,8.20
2019-05-06T00:48:24.290Z,7.95
2019-05-06T00:50:53.566Z,8.10
2019-05-06T00:53:23.975Z,8.10
2019-05-06T00:55:53.790Z,7.60
2019-05-06T00:58:23.852Z,7.65
2019-05-06T01:00:53.863Z,8.40
2019-05-06T01:03:23.930Z,8.10
2019-05-06T01:05:54.252Z,7.97
2019-05-06T01:08:23.959Z,7.67
2019-05-06T01:10:54.477Z,8.10
2019-05-06T01:13:27.081Z,8.53
2019-05-06T01:15:55.508Z,8.00
2019-05-06T01:18:24.485Z,7.37
2019-05-06T01:20:54.683Z,7.62
2019-05-06T01:23:23.501Z,7.62
2019-05-06T01:25:51.970Z,7.95
2019-05-06T01:28:20.401Z,7.60
2019-05-06T01:30:48.837Z,8.20
2019-05-06T01:33:17.264Z,7.60
2019-05-06T01:35:45.682Z,8.65
2019-05-06T01:38:21.671Z,7.75
2019-05-06T01:40:51.733Z,7.75
2019-05-06T01:43:24.055Z,8.00
2019-05-06T01:45:53.646Z,7.90
2019-05-06T01:48:24.514Z,8.33
2019-05-06T01:50:54.030Z,8.50
2019-05-06T01:53:24.177Z,8.40
2019-05-06T01:55:54.481Z,8.18
2019-05-06T01:58:24.267Z,8.25
2019-05-06T02:00:54.395Z,8.65
2019-05-06T02:03:24.211Z,8.95
2019-05-06T02:05:53.941Z,8.75
2019-05-06T02:08:24.345Z,8.28
2019-05-06T02:10:54.514Z,8.33
2019-05-06T02:13:23.819Z,8.18
2019-05-06T02:15:54.636Z,8.38
2019-05-06T02:18:24.324Z,8.93
2019-05-06T02:21:05.438Z,8.40
2019-05-06T02:23:41.589Z,8.60
2019-05-06T02:26:10.004Z,8.40
2019-05-06T02:28:40.076Z,8.70
2019-05-06T02:31:25.851Z,8.40
2019-05-06T02:34:04.923Z,7.95
2019-05-06T02:36:36.445Z,8.80
2019-05-06T02:39:06.990Z,8.40
2019-05-06T02:41:35.401Z,8.50
2019-05-06T02:44:03.936Z,8.20
2019-05-06T02:46:33.763Z,8.78
2019-05-06T02:49:04.144Z,8.40
2019-05-06T02:51:33.337Z,8.40
2019-05-06T02:54:03.221Z,8.60
2019-05-06T02:56:33.331Z,7.80
2019-05-06T02:59:03.986Z,7.92
2019-05-06T03:01:34.004Z,8.93
2019-05-06T03:04:04.392Z,8.30
2019-05-06T03:06:33.846Z,8.73
2019-05-06T03:09:03.244Z,8.13
2019-05-06T03:11:33.155Z,8.63
2019-05-06T03:14:03.256Z,8.93
2019-05-06T03:16:33.303Z,8.28
2019-05-06T03:19:04.162Z,9.63
2019-05-06T03:21:37.114Z,8.88
2019-05-06T03:24:19.193Z,9.18
2019-05-06T03:26:49.262Z,9.90
2019-05-06T03:29:17.680Z,9.43
2019-05-06T03:31:46.701Z,8.88
2019-05-06T03:34:35.765Z,8.78
2019-05-06T03:36:48.362Z,9.00
2019-05-06T03:39:15.524Z,9.60
2019-05-06T03:41:44.036Z,9.65
2019-05-06T03:44:16.370Z,9.30
2019-05-06T03:47:05.244Z,9.58
2019-05-06T03:49:33.874Z,8.93
2019-05-06T03:52:02.854Z,9.75
2019-05-06T03:54:34.294Z,9.30
2019-05-06T03:57:04.173Z,9.75
2019-05-06T03:59:33.928Z,9.70
2019-05-06T04:02:05.117Z,10.03
2019-05-06T04:04:33.316Z,10.00
2019-05-06T04:07:03.359Z,9.88
2019-05-06T04:09:36.265Z,10.50
2019-05-06T04:12:03.703Z,10.35
2019-05-06T04:14:33.773Z,10.40
2019-05-06T04:17:18.936Z,10.00
2019-05-06T04:19:55.030Z,10.58
2019-05-06T04:22:25.106Z,10.10
2019-05-06T04:24:55.225Z,10.68
2019-05-06T04:27:28.489Z,9.80
2019-05-06T04:29:57.208Z,10.30
2019-05-06T04:32:25.651Z,10.90
2019-05-06T04:34:54.231Z,10.78
2019-05-06T04:37:24.169Z,9.55
2019-05-06T04:39:53.542Z,9.20
2019-05-06T04:42:26.325Z,9.60
2019-05-06T04:44:53.106Z,9.43
2019-05-06T04:47:24.100Z,9.40
2019-05-06T04:49:53.126Z,9.25
2019-05-06T04:52:22.813Z,10.20
2019-05-06T04:54:53.459Z,9.93
2019-05-06T04:57:23.882Z,9.53
2019-05-06T04:59:54.277Z,8.95
2019-05-06T05:02:23.075Z,9.25
2019-05-06T05:04:53.025Z,9.50
2019-05-06T05:07:22.483Z,9.30
2019-05-06T05:09:53.499Z,9.35
2019-05-06T05:12:23.877Z,8.80
2019-05-06T05:14:53.948Z,8.58
2019-05-06T05:17:33.142Z,8.85
2019-05-06T05:20:02.171Z,8.50
2019-05-06T05:22:32.494Z,8.45
2019-05-06T05:25:03.274Z,8.43
2019-05-06T05:27:32.930Z,8.30
2019-05-06T05:30:02.037Z,8.98
2019-05-06T05:32:32.101Z,8.10
2019-05-06T05:35:02.090Z,8.67
2019-05-06T05:37:32.711Z,9.25
2019-05-06T05:40:03.119Z,8.45
2019-05-06T05:42:32.973Z,7.40
2019-05-06T05:45:02.677Z,7.90
2019-05-06T05:47:33.154Z,8.03
2019-05-06T05:50:03.292Z,7.28
2019-05-06T05:52:32.908Z,7.80
2019-05-06T05:55:02.848Z,7.97
2019-05-06T05:57:32.224Z,7.43
2019-05-06T06:00:00.854Z,7.58
2019-05-06T06:02:29.846Z,7.90
2019-05-06T06:04:58.268Z,6.67
2019-05-06T06:07:26.697Z,7.20
2019-05-06T06:09:56.852Z,7.53
2019-05-06T06:12:25.346Z,7.80
2019-05-06T06:15:02.263Z,7.20
2019-05-06T06:17:47.504Z,7.60
2019-05-06T06:20:34.600Z,8.35
2019-05-06T06:23:04.725Z,7.42
2019-05-06T06:25:33.544Z,8.10
2019-05-06T06:28:02.763Z,7.85
2019-05-06T06:30:33.185Z,7.45
2019-05-06T06:33:02.644Z,7.50
2019-05-06T06:35:38.833Z,7.40
2019-05-06T06:38:08.902Z,7.35
2019-05-06T06:40:37.332Z,7.40
2019-05-06T06:43:07.380Z,7.37
2019-05-06T06:45:36.089Z,6.35
2019-05-06T06:48:04.684Z,7.40
2019-05-06T06:50:33.314Z,6.83
2019-05-06T06:53:03.015Z,7.42
2019-05-06T06:55:31.940Z,7.55
2019-05-06T06:58:03.155Z,7.43
2019-05-06T07:00:45.048Z,7.30
2019-05-06T07:03:15.117Z,7.00
2019-05-06T07:05:45.173Z,7.55
2019-05-06T07:08:13.615Z,7.87
2019-05-06T07:10:44.617Z,6.80
2019-05-06T07:13:14.261Z,7.10
2019-05-06T07:15:42.867Z,7.17
2019-05-06T07:18:13.484Z,6.10
2019-05-06T07:20:58.992Z,5.95
2019-05-06T07:23:36.950Z,6.05
2019-05-06T07:26:08.572Z,6.08
2019-05-06T07:28:43.665Z,6.00
2019-05-06T07:31:22.391Z,6.00
2019-05-06T07:33:47.239Z,6.12
2019-05-06T07:36:15.657Z,5.65
2019-05-06T07:38:49.868Z,5.90
2019-05-06T07:41:23.577Z,5.28
2019-05-06T07:43:59.053Z,4.90
2019-05-06T07:46:29.105Z,5.37
2019-05-06T07:48:57.528Z,5.03
2019-05-06T07:51:25.958Z,5.10
2019-05-06T07:53:54.399Z,5.20
2019-05-06T07:56:23.685Z,4.70
2019-05-06T07:58:53.778Z,4.27
2019-05-06T08:01:25.898Z,4.83
2019-05-06T08:03:53.284Z,4.70
2019-05-06T08:06:22.709Z,4.77
2019-05-06T08:08:53.647Z,5.28
2019-05-06T08:11:22.275Z,5.22
2019-05-06T08:13:52.750Z,5.42
2019-05-06T08:16:22.637Z,5.17
2019-05-06T08:18:52.461Z,4.70
2019-05-06T08:21:23.513Z,5.10
2019-05-06T08:23:53.107Z,4.53
2019-05-06T08:26:22.436Z,5.08
2019-05-06T08:28:52.658Z,4.90
2019-05-06T08:31:22.473Z,4.62
2019-05-06T08:33:52.415Z,4.80
2019-05-06T08:36:22.741Z,6.00
2019-05-06T08:38:58.752Z,5.40
2019-05-06T08:41:27.766Z,5.92
2019-05-06T08:43:56.388Z,5.00
2019-05-06T08:46:25.027Z,5.40
2019-05-06T08:48:53.452Z,5.40
2019-05-06T08:51:23.522Z,4.87
2019-05-06T08:53:53.581Z,4.70
2019-05-06T08:56:22.141Z,4.55
2019-05-06T08:58:52.797Z,4.55
2019-05-06T09:01:26.056Z,4.73
2019-05-06T09:04:08.336Z,4.80
2019-05-06T09:06:30.198Z,5.40
2019-05-06T09:08:56.797Z,4.17
2019-05-06T09:11:25.867Z,4.62
2019-05-06T09:13:54.401Z,4.30
2019-05-06T09:16:22.839Z,4.70
2019-05-06T09:18:53.317Z,4.40
2019-05-06T09:21:22.630Z,4.20
2019-05-06T09:23:53.198Z,4.83
2019-05-06T09:26:25.937Z,5.15
2019-05-06T09:29:07.876Z,5.03
2019-05-06T09:31:42.564Z,4.83
2019-05-06T09:34:13.070Z,5.03
2019-05-06T09:36:51.465Z,5.30
2019-05-06T09:39:12.986Z,4.92
2019-05-06T09:41:46.608Z,4.55
2019-05-06T09:44:12.448Z,4.33
2019-05-06T09:46:42.643Z,3.30
2019-05-06T09:49:12.889Z,3.50
2019-05-06T09:51:42.441Z,3.75
2019-05-06T09:54:24.853Z,3.62
2019-05-06T09:56:55.434Z,3.90
2019-05-06T09:59:23.921Z,3.62
2019-05-06T10:01:52.928Z,4.47
2019-05-06T10:04:21.454Z,4.15
2019-05-06T10:06:57.349Z,4.00
2019-05-06T10:09:20.075Z,3.80
2019-05-06T10:11:48.568Z,2.80
2019-05-06T10:14:16.989Z,2.67
2019-05-06T10:16:45.425Z,2.90
2019-05-06T10:19:13.841Z,2.40
2019-05-06T10:21:42.756Z,2.60
2019-05-06T10:24:11.327Z,2.77
2019-05-06T10:26:43.163Z,2.30
2019-05-06T10:29:15.845Z,3.00
2019-05-06T10:31:52.395Z,3.00
2019-05-06T10:34:22.238Z,2.80
2019-05-06T10:37:18.018Z,2.70
2019-05-06T10:39:43.331Z,2.42
2019-05-06T10:42:14.837Z,2.40
2019-05-06T10:44:48.979Z,2.47
2019-05-06T10:47:17.425Z,3.00
2019-05-06T10:49:45.842Z,2.70
2019-05-06T10:52:24.790Z,2.20
2019-05-06T10:54:53.453Z,2.47
2019-05-06T10:57:32.854Z,2.60
2019-05-06T11:00:01.403Z,2.20
2019-05-06T11:02:40.071Z,2.52
2019-05-06T11:05:08.496Z,2.90
2019-05-06T11:07:36.947Z,2.50
2019-05-06T11:10:06.129Z,2.65
2019-05-06T11:12:34.554Z,2.60
2019-05-06T11:15:03.646Z,3.40
2019-05-06T11:17:32.662Z,3.50
2019-05-06T11:20:03.463Z,3.05
2019-05-06T11:22:32.734Z,3.50
2019-05-06T11:25:03.130Z,3.30
2019-05-06T11:27:33.256Z,3.10
2019-05-06T11:30:03.609Z,3.80
2019-05-06T11:32:36.395Z,4.05
2019-05-06T11:35:13.158Z,3.70
2019-05-06T11:37:49.784Z,4.37
2019-05-06T11:40:16.869Z,4.12
2019-05-06T11:42:43.909Z,3.08
2019-05-06T11:45:12.693Z,3.10
2019-05-06T11:47:42.104Z,2.70
2019-05-06T11:50:13.000Z,2.40
2019-05-06T11:52:43.450Z,2.20
2019-05-06T11:55:12.609Z,2.52
2019-05-06T11:57:44.663Z,2.40
2019-05-06T12:00:17.668Z,2.40
2019-05-06T12:02:48.621Z,2.95
2019-05-06T12:05:16.552Z,2.62
2019-05-06T12:08:01.173Z,2.70
2019-05-06T12:10:15.303Z,3.10
2019-05-06T12:12:43.722Z,3.00
2019-05-06T12:15:12.712Z,2.70
2019-05-06T12:17:42.179Z,2.72
2019-05-06T12:20:12.923Z,2.22
2019-05-06T12:22:42.383Z,1.90
2019-05-06T12:25:15.288Z,2.20
2019-05-06T12:27:44.513Z,2.25
2019-05-06T12:30:15.694Z,4.33
2019-05-06T12:32:48.445Z,2.92
2019-05-06T12:35:16.871Z,2.80
2019-05-06T12:37:46.929Z,3.27
2019-05-06T12:40:15.702Z,2.92
2019-05-06T12:42:53.504Z,2.90
2019-05-06T12:45:23.591Z,2.50
2019-05-06T12:47:53.917Z,2.60
2019-05-06T12:50:22.887Z,2.80
2019-05-06T12:52:52.627Z,3.00
2019-05-06T12:55:25.306Z,3.20
2019-05-06T12:57:53.211Z,3.10
2019-05-06T13:00:23.605Z,2.80
2019-05-06T13:02:53.110Z,3.33
2019-05-06T13:05:21.682Z,2.90
2019-05-06T13:07:52.562Z,3.40
2019-05-06T13:10:23.031Z,2.97
2019-05-06T13:12:54.112Z,3.42
2019-05-06T13:15:24.417Z,3.50
2019-05-06T13:17:53.273Z,3.83
2019-05-06T13:20:22.879Z,3.90
2019-05-06T13:22:53.641Z,4.05
2019-05-06T13:25:23.402Z,4.15
2019-05-06T13:27:52.813Z,3.50
2019-05-06T13:30:22.771Z,3.70
2019-05-06T13:32:55.893Z,3.83
2019-05-06T13:35:24.319Z,3.80
2019-05-06T13:37:52.857Z,3.90
2019-05-06T13:40:22.936Z,3.80
2019-05-06T13:43:02.241Z,3.80
2019-05-06T13:45:52.725Z,3.17
2019-05-06T13:48:25.251Z,3.65
2019-05-06T13:50:58.029Z,2.62
2019-05-06T13:53:38.772Z,3.10
2019-05-06T13:55:56.627Z,2.60
2019-05-06T13:58:25.138Z,3.00
2019-05-06T14:00:54.054Z,3.15
2019-05-06T14:03:22.476Z,2.60
2019-05-06T14:05:52.078Z,2.77
2019-05-06T14:08:22.145Z,3.65
2019-05-06T14:10:57.488Z,4.40
2019-05-06T14:13:22.032Z,3.65
2019-05-06T14:15:52.664Z,3.60
2019-05-06T14:18:22.533Z,3.10
2019-05-06T14:20:52.108Z,3.40
2019-05-06T14:23:22.100Z,3.50
2019-05-06T14:26:08.403Z,3.40
2019-05-06T14:28:38.774Z,3.15
2019-05-06T14:31:11.765Z,2.83
2019-05-06T14:33:42.642Z,2.90
2019-05-06T14:36:12.664Z,3.20
2019-05-06T14:38:42.810Z,3.20
2019-05-06T14:41:15.368Z,3.00
2019-05-06T14:43:43.881Z,3.60
2019-05-06T14:46:12.319Z,3.40
2019-05-06T14:48:42.920Z,3.10
2019-05-06T14:51:12.902Z,3.12
2019-05-06T14:53:43.368Z,3.10
2019-05-06T14:56:32.085Z,2.70
2019-05-06T14:59:03.891Z,3.50
2019-05-06T15:01:33.570Z,3.40
2019-05-06T15:04:02.605Z,3.22
2019-05-06T15:06:33.013Z,3.30
2019-05-06T15:09:03.774Z,3.20
2019-05-06T15:11:32.475Z,3.35
2019-05-06T15:14:03.566Z,2.70
2019-05-06T15:16:33.593Z,3.12
2019-05-06T15:19:03.767Z,3.10
2019-05-06T15:21:37.798Z,2.90
2019-05-06T15:24:02.641Z,2.35
2019-05-06T15:26:33.222Z,3.27
2019-05-06T15:29:03.376Z,2.70
2019-05-06T15:31:35.870Z,2.60
2019-05-06T15:34:14.745Z,3.00
2019-05-06T15:36:47.785Z,2.17
2019-05-06T15:39:16.234Z,2.10
2019-05-06T15:41:44.657Z,3.00
2019-05-06T15:44:13.085Z,2.55
2019-05-06T15:46:43.070Z,3.00
2019-05-06T15:49:11.621Z,2.37
2019-05-06T15:51:40.056Z,2.67
2019-05-06T15:54:08.734Z,2.90
2019-05-06T15:56:37.165Z,2.70
2019-05-06T15:59:05.675Z,2.50
2019-05-06T16:01:34.396Z,2.40
2019-05-06T16:04:02.894Z,2.60
2019-05-06T16:06:33.125Z,3.70
2019-05-06T16:09:03.568Z,2.83
2019-05-06T16:11:32.942Z,2.90
2019-05-06T16:14:02.911Z,3.30
2019-05-06T16:16:32.708Z,3.07
2019-05-06T16:19:03.978Z,3.10
2019-05-06T16:21:33.440Z,2.70
2019-05-06T16:24:03.738Z,3.08
2019-05-06T16:26:32.181Z,3.10
2019-05-06T16:29:02.378Z,2.92
2019-05-06T16:31:32.950Z,3.10
2019-05-06T16:34:03.128Z,3.70
2019-05-06T16:36:32.435Z,3.55
2019-05-06T16:39:03.269Z,3.37
2019-05-06T16:41:31.453Z,3.10
2019-05-06T16:44:02.014Z,3.20
2019-05-06T16:46:33.951Z,3.20
2019-05-06T16:49:02.238Z,3.90
2019-05-06T16:51:32.559Z,4.20
2019-05-06T16:54:02.138Z,3.52
2019-05-06T16:56:33.255Z,3.33
2019-05-06T16:59:03.520Z,4.10
2019-05-06T17:01:34.501Z,3.47
2019-05-06T17:04:19.197Z,3.13
2019-05-06T17:06:48.742Z,2.97
2019-05-06T17:09:21.313Z,3.20
2019-05-06T17:11:47.305Z,2.80
2019-05-06T17:14:15.737Z,2.25
2019-05-06T17:16:44.167Z,2.70
2019-05-06T17:19:12.894Z,2.90
2019-05-06T17:21:42.291Z,2.55
2019-05-06T17:24:12.839Z,3.00
2019-05-06T17:26:42.693Z,2.70
2019-05-06T17:29:24.383Z,2.65
2019-05-06T17:32:02.338Z,2.60
2019-05-06T17:34:34.857Z,2.60
2019-05-06T17:37:04.917Z,2.87
2019-05-06T17:39:33.339Z,2.63
2019-05-06T17:42:01.766Z,2.70
2019-05-06T17:44:32.195Z,2.30
2019-05-06T17:47:02.681Z,2.58
2019-05-06T17:49:32.912Z,2.60
2019-05-06T17:52:03.133Z,2.30
2019-05-06T17:54:32.389Z,2.08
2019-05-06T17:57:03.812Z,2.50
2019-05-06T17:59:33.179Z,2.20
2019-05-06T18:02:02.912Z,2.58
2019-05-06T18:04:31.333Z,3.00
2019-05-06T18:06:59.753Z,2.92
2019-05-06T18:09:28.180Z,2.50
2019-05-06T18:11:59.267Z,2.60
2019-05-06T18:14:26.759Z,2.60
2019-05-06T18:16:55.175Z,2.00
2019-05-06T18:19:23.665Z,2.20
2019-05-06T18:21:52.791Z,1.98
2019-05-06T18:24:23.064Z,2.33
2019-05-06T18:26:52.862Z,2.10
2019-05-06T18:29:22.196Z,3.17
2019-05-06T18:31:52.473Z,2.00
2019-05-06T18:34:23.064Z,2.05
2019-05-06T18:36:52.521Z,2.37
2019-05-06T18:39:22.325Z,2.87
2019-05-06T18:41:53.105Z,2.70
2019-05-06T18:44:22.649Z,2.30
2019-05-06T18:46:53.024Z,2.30
2019-05-06T18:49:22.368Z,2.67
2019-05-06T18:51:52.007Z,2.30
2019-05-06T18:54:22.050Z,2.60
2019-05-06T18:56:52.229Z,2.70
2019-05-06T18:59:22.978Z,2.50
2019-05-06T19:01:50.875Z,2.43
2019-05-06T19:04:26.366Z,2.60
2019-05-06T19:07:09.188Z,2.52
2019-05-06T19:09:26.654Z,2.50
2019-05-06T19:11:55.061Z,2.97
2019-05-06T19:14:23.490Z,2.70
2019-05-06T19:16:54.975Z,2.80
2019-05-06T19:19:23.334Z,3.00
2019-05-06T19:21:52.396Z,2.80
2019-05-06T19:24:22.610Z,2.77
2019-05-06T19:26:52.720Z,2.50
2019-05-06T19:29:23.230Z,2.80
2019-05-06T19:31:52.167Z,2.42
2019-05-06T19:34:20.756Z,2.40
2019-05-06T19:36:49.197Z,2.80
2019-05-06T19:39:17.614Z,2.70
2019-05-06T19:41:46.135Z,3.40
2019-05-06T19:44:14.550Z,3.90
2019-05-06T19:46:42.965Z,3.40
2019-05-06T19:49:11.385Z,3.60
2019-05-06T19:51:39.807Z,3.52
2019-05-06T19:54:08.235Z,3.60
2019-05-06T19:56:36.670Z,3.30
2019-05-06T19:59:05.152Z,3.40
2019-05-06T20:01:33.584Z,3.25
2019-05-06T20:04:02.637Z,3.00
2019-05-06T20:06:41.485Z,3.30
2019-05-06T20:09:28.192Z,3.83
2019-05-06T20:12:02.844Z,3.30
2019-05-06T20:14:31.381Z,3.70
2019-05-06T20:16:59.817Z,4.67
2019-05-06T20:19:31.275Z,4.20
2019-05-06T20:21:58.382Z,3.98
2019-05-06T20:24:27.058Z,3.65
2019-05-06T20:26:55.502Z,3.70
2019-05-06T20:29:23.929Z,3.80
2019-05-06T20:31:53.466Z,4.10
2019-05-06T20:34:22.542Z,5.00
2019-05-06T20:36:52.839Z,4.30
2019-05-06T20:39:22.995Z,4.90
2019-05-06T20:41:51.634Z,5.47
2019-05-06T20:44:20.049Z,5.42
2019-05-06T20:46:48.489Z,5.83
2019-05-06T20:49:16.909Z,6.10
2019-05-06T20:51:45.588Z,6.72
2019-05-06T20:54:14.254Z,6.25
2019-05-06T20:56:42.744Z,5.70
2019-05-06T20:59:12.131Z,6.10
2019-05-06T21:01:42.535Z,5.93
2019-05-06T21:04:12.908Z,4.83
2019-05-06T21:06:42.579Z,4.67
2019-05-06T21:09:12.477Z,4.10
2019-05-06T21:11:42.153Z,3.35
2019-05-06T21:14:13.048Z,3.85
2019-05-06T21:16:42.248Z,3.00
2019-05-06T21:19:12.652Z,3.50
2019-05-06T21:21:43.178Z,2.93
2019-05-06T21:24:12.978Z,3.50
2019-05-06T21:26:42.531Z,3.27
2019-05-06T21:29:12.751Z,3.50
2019-05-06T21:31:42.258Z,2.87
2019-05-06T21:34:12.850Z,3.25
2019-05-06T21:36:42.206Z,3.00
2019-05-06T21:39:12.944Z,3.10
2019-05-06T21:41:42.762Z,2.98
2019-05-06T21:44:13.293Z,3.00
2019-05-06T21:46:42.922Z,2.90
2019-05-06T21:49:12.145Z,3.15
2019-05-06T21:51:42.543Z,3.00
2019-05-06T21:54:12.539Z,3.10
2019-05-06T21:56:42.495Z,3.02
2019-05-06T21:59:12.902Z,3.30
2019-05-06T22:01:42.962Z,3.10
2019-05-06T22:04:12.770Z,3.30
2019-05-06T22:06:42.737Z,3.00
2019-05-06T22:09:12.129Z,3.70
2019-05-06T22:11:42.386Z,3.30
2019-05-06T22:14:12.249Z,4.30
2019-05-06T22:16:40.995Z,3.73
2019-05-06T22:19:09.498Z,4.53
2019-05-06T22:21:57.477Z,4.70
2019-05-06T22:24:27.544Z,4.40
2019-05-06T22:26:55.968Z,3.83
2019-05-06T22:29:24.540Z,4.10
2019-05-06T22:31:52.984Z,4.10
2019-05-06T22:34:22.150Z,4.70
2019-05-06T22:36:51.952Z,4.25
2019-05-06T22:39:22.644Z,5.03
2019-05-06T22:41:52.034Z,4.60
2019-05-06T22:44:22.614Z,4.95
2019-05-06T22:46:50.744Z,4.80
2019-05-06T22:49:19.186Z,4.78
2019-05-06T22:51:47.610Z,5.05
2019-05-06T22:54:16.041Z,4.60
2019-05-06T22:56:44.461Z,5.30
2019-05-06T22:59:12.876Z,5.17
2019-05-06T23:01:48.933Z,5.17
2019-05-06T23:04:18.990Z,5.20
2019-05-06T23:06:47.421Z,5.50
2019-05-06T23:09:15.836Z,5.33
2019-05-06T23:11:44.257Z,4.80
2019-05-06T23:14:27.608Z,4.90
2019-05-06T23:16:42.836Z,4.60
2019-05-06T23:19:11.265Z,4.90
2019-05-06T23:21:39.698Z,5.20
2019-05-06T23:24:08.108Z,5.47
2019-05-06T23:26:36.528Z,5.03
2019-05-06T23:29:05.021Z,6.45
2019-05-06T23:31:33.481Z,5.00
2019-05-06T23:34:05.105Z,5.17
2019-05-06T23:36:59.416Z,5.60
2019-05-06T23:40:05.533Z,4.75
2019-05-06T23:43:10.001Z,5.60
2019-05-06T23:46:14.030Z,5.15
2019-05-06T23:49:18.257Z,5.17
2019-05-06T23:52:22.789Z,4.90
2019-05-06T23:55:27.301Z,4.60
2019-05-06T23:57:54.653Z,5.00
